Sumpter, Illinois
Current Conditions -  °F | °C
As of 1:53 AM on Sunday 21 Dec 2014 (Local Time) from KMTO Reporting Station
Overcast Overcast  
Wind Chill: 23°   Ceiling: 3000
Heat Index: 31°   Visibility: 8mi
Dew Point: 26°   Wind: 8mph
Humidity: 82%   Direction: 160°SSE
Pressure: 30.26"   Gusts: NA
Location:  39.2896°N, 88.2485°W
Report Text: KMTO 210753Z AUTO 16007KT 8SM OVC030 M01/M03 A3026 RMK AO2 SLP253 T10061033
Loading
Personal Weather Stations






























Interactive Weather Map New forecast layout! Learn more

10-Day Weather Forecast

Advertisements
Track Severe Weather on mobile